createdAt,value
2019-05-05T00:01:00.971Z,6.10
2019-05-05T00:03:44.447Z,6.10
2019-05-05T00:06:14.558Z,6.10
2019-05-05T00:08:41.974Z,6.10
2019-05-05T00:11:30.631Z,6.10
2019-05-05T00:14:07.849Z,6.10
2019-05-05T00:16:50.228Z,6.00
2019-05-05T00:19:29.768Z,6.00
2019-05-05T00:21:47.593Z,6.00
2019-05-05T00:24:15.338Z,5.90
2019-05-05T00:26:43.049Z,5.90
2019-05-05T00:29:10.840Z,5.90
2019-05-05T00:31:38.553Z,5.90
2019-05-05T00:34:06.419Z,5.90
2019-05-05T00:36:35.211Z,5.80
2019-05-05T00:39:04.345Z,5.80
2019-05-05T00:41:32.093Z,5.80
2019-05-05T00:43:59.823Z,5.80
2019-05-05T00:46:56.079Z,5.70
2019-05-05T00:49:25.083Z,5.70
2019-05-05T00:51:54.572Z,5.70
2019-05-05T00:54:24.288Z,5.60
2019-05-05T00:56:54.333Z,5.60
2019-05-05T00:59:25.111Z,5.60
2019-05-05T01:02:10.580Z,5.60
2019-05-05T01:04:46.745Z,5.60
2019-05-05T01:07:14.554Z,5.60
2019-05-05T01:09:44.973Z,5.50
2019-05-05T01:12:14.979Z,5.50
2019-05-05T01:14:44.609Z,5.40
2019-05-05T01:17:14.557Z,5.40
2019-05-05T01:19:41.823Z,5.30
2019-05-05T01:22:09.642Z,5.30
2019-05-05T01:24:37.347Z,5.30
2019-05-05T01:27:05.150Z,5.30
2019-05-05T01:29:34.616Z,5.20
2019-05-05T01:32:05.027Z,5.20
2019-05-05T01:34:39.089Z,5.10
2019-05-05T01:37:15.123Z,5.10
2019-05-05T01:39:55.202Z,5.10
2019-05-05T01:42:24.760Z,5.10
2019-05-05T01:44:52.456Z,5.10
2019-05-05T01:47:20.190Z,5.10
2019-05-05T01:49:47.902Z,5.10
2019-05-05T01:52:15.635Z,5.10
2019-05-05T01:54:44.609Z,5.10
2019-05-05T01:57:14.594Z,5.10
2019-05-05T01:59:42.033Z,5.10
2019-05-05T02:02:09.774Z,5.00
2019-05-05T02:04:37.497Z,5.00
2019-05-05T02:07:05.562Z,5.00
2019-05-05T02:09:35.225Z,5.00
2019-05-05T02:12:04.980Z,5.00
2019-05-05T02:14:32.397Z,5.00
2019-05-05T02:17:00.172Z,5.00
2019-05-05T02:19:27.869Z,5.00
2019-05-05T02:21:55.711Z,5.00
2019-05-05T02:24:25.078Z,4.90
2019-05-05T02:26:54.524Z,4.90
2019-05-05T02:29:31.984Z,4.90
2019-05-05T02:32:17.826Z,4.80
2019-05-05T02:34:51.348Z,4.70
2019-05-05T02:37:19.047Z,4.70
2019-05-05T02:39:57.759Z,4.70
2019-05-05T02:42:16.363Z,4.70
2019-05-05T02:44:45.627Z,4.60
2019-05-05T02:47:41.823Z,4.60
2019-05-05T02:50:09.539Z,4.50
2019-05-05T02:52:37.545Z,4.50
2019-05-05T02:55:05.825Z,4.50
2019-05-05T02:57:34.564Z,4.50
2019-05-05T03:00:13.470Z,4.50
2019-05-05T03:02:43.300Z,4.40
2019-05-05T03:05:10.919Z,4.40
2019-05-05T03:07:38.628Z,4.40
2019-05-05T03:10:07.207Z,4.40
2019-05-05T03:12:34.941Z,4.30
2019-05-05T03:15:04.166Z,4.30
2019-05-05T03:17:33.958Z,4.30
2019-05-05T03:20:01.642Z,4.20
2019-05-05T03:22:29.406Z,4.30
2019-05-05T03:24:57.185Z,4.20
2019-05-05T03:27:24.942Z,4.20
2019-05-05T03:29:53.507Z,4.20
2019-05-05T03:32:24.886Z,4.20
2019-05-05T03:34:51.057Z,4.20
2019-05-05T03:37:18.781Z,4.10
2019-05-05T03:39:53.683Z,4.10
2019-05-05T03:42:33.823Z,4.00
2019-05-05T03:45:05.375Z,4.00
2019-05-05T03:47:33.686Z,4.00
2019-05-05T03:50:01.665Z,4.00
2019-05-05T03:52:29.371Z,4.00
2019-05-05T03:54:57.245Z,4.00
2019-05-05T03:57:24.953Z,4.00
2019-05-05T03:59:54.613Z,4.00
2019-05-05T04:02:56.541Z,3.90
2019-05-05T04:05:34.522Z,3.90
2019-05-05T04:08:03.939Z,3.90
2019-05-05T04:10:33.423Z,3.90
2019-05-05T04:13:01.681Z,3.90
2019-05-05T04:15:29.634Z,3.90
2019-05-05T04:18:19.978Z,3.90
2019-05-05T04:20:47.695Z,3.80
2019-05-05T04:23:15.510Z,3.90
2019-05-05T04:25:43.946Z,3.90
2019-05-05T04:28:13.649Z,3.90
2019-05-05T04:30:41.361Z,3.90
2019-05-05T04:33:09.148Z,3.80
2019-05-05T04:35:36.835Z,3.80
2019-05-05T04:38:05.387Z,3.80
2019-05-05T04:40:34.522Z,3.80
2019-05-05T04:43:03.868Z,3.80
2019-05-05T04:45:31.748Z,3.80
2019-05-05T04:48:21.493Z,3.90
2019-05-05T04:51:09.585Z,3.90
2019-05-05T04:53:59.566Z,3.90
2019-05-05T04:56:29.822Z,4.00
2019-05-05T04:58:56.949Z,4.00
2019-05-05T05:01:24.660Z,4.20
2019-05-05T05:04:13.651Z,4.30
2019-05-05T05:06:44.850Z,4.50
2019-05-05T05:09:14.524Z,4.90
2019-05-05T05:11:44.179Z,5.80
2019-05-05T05:14:11.701Z,6.70
2019-05-05T05:16:39.437Z,7.40
2019-05-05T05:19:07.215Z,8.40
2019-05-05T05:21:34.920Z,9.30
2019-05-05T05:24:04.007Z,9.70
2019-05-05T05:26:33.593Z,10.30
2019-05-05T05:29:01.498Z,10.90
2019-05-05T05:31:29.225Z,11.40
2019-05-05T05:33:56.993Z,11.70
2019-05-05T05:36:24.899Z,11.90
2019-05-05T05:38:54.841Z,12.20
2019-05-05T05:41:54.221Z,12.00
2019-05-05T05:44:30.135Z,12.10
2019-05-05T05:47:17.298Z,12.90
2019-05-05T05:50:00.861Z,13.40
2019-05-05T05:52:28.574Z,13.90
2019-05-05T05:54:56.354Z,14.80
2019-05-05T05:57:24.142Z,15.20
2019-05-05T05:59:51.846Z,15.90
2019-05-05T06:02:19.571Z,16.30
2019-05-05T06:04:47.349Z,16.90
2019-05-05T06:07:15.065Z,17.40
2019-05-05T06:09:43.727Z,17.70
2019-05-05T06:12:11.651Z,17.90
2019-05-05T06:14:39.410Z,18.00
2019-05-05T06:17:07.291Z,18.00
2019-05-05T06:19:35.010Z,17.50
2019-05-05T06:22:03.541Z,16.90
2019-05-05T06:24:31.417Z,17.20
2019-05-05T06:26:59.202Z,17.10
2019-05-05T06:29:26.933Z,16.80
2019-05-05T06:31:54.694Z,17.50
2019-05-05T06:34:24.292Z,17.30
2019-05-05T06:36:53.594Z,16.80
2019-05-05T06:39:21.525Z,17.50
2019-05-05T06:42:14.377Z,18.00
2019-05-05T06:44:50.102Z,17.40
2019-05-05T06:47:20.691Z,18.10
2019-05-05T06:49:48.413Z,18.70
2019-05-05T06:52:16.168Z,19.20
2019-05-05T06:54:43.969Z,20.00
2019-05-05T06:57:13.489Z,17.80
2019-05-05T06:59:41.219Z,18.90
2019-05-05T07:02:08.970Z,20.00
2019-05-05T07:04:36.690Z,18.90
2019-05-05T07:07:05.134Z,19.30
2019-05-05T07:09:33.685Z,18.90
2019-05-05T07:12:01.474Z,18.70
2019-05-05T07:14:29.169Z,19.00
2019-05-05T07:16:56.933Z,19.30
2019-05-05T07:19:24.653Z,19.90
2019-05-05T07:21:53.776Z,20.40
2019-05-05T07:24:23.696Z,21.20
2019-05-05T07:26:51.252Z,21.10
2019-05-05T07:29:18.963Z,20.50
2019-05-05T07:31:46.665Z,20.90
2019-05-05T07:34:15.614Z,19.10
2019-05-05T07:36:47.472Z,19.20
2019-05-05T07:39:15.353Z,18.80
2019-05-05T07:41:44.803Z,17.80
2019-05-05T07:44:25.467Z,17.10
2019-05-05T07:46:43.939Z,16.60
2019-05-05T07:49:13.719Z,15.40
2019-05-05T07:51:41.210Z,14.90
2019-05-05T07:54:09.217Z,13.90
2019-05-05T07:56:36.964Z,12.80
2019-05-05T07:59:04.760Z,12.00
2019-05-05T08:01:33.692Z,11.50
2019-05-05T08:04:01.666Z,10.80
2019-05-05T08:06:29.393Z,10.50
2019-05-05T08:08:57.125Z,10.60
2019-05-05T08:11:24.849Z,10.40
2019-05-05T08:13:54.594Z,10.00
2019-05-05T08:16:56.575Z,10.00
2019-05-05T08:19:34.688Z,10.20
2019-05-05T08:22:03.649Z,9.80
2019-05-05T08:25:05.921Z,9.80
2019-05-05T08:27:56.094Z,9.90
2019-05-05T08:30:33.692Z,10.00
2019-05-05T08:33:01.905Z,10.40
2019-05-05T08:35:29.666Z,10.80
2019-05-05T08:37:57.385Z,11.00
2019-05-05T08:40:25.122Z,11.20
2019-05-05T08:42:53.938Z,11.30
2019-05-05T08:45:24.571Z,11.40
2019-05-05T08:47:51.307Z,11.40
2019-05-05T08:50:19.056Z,10.90
2019-05-05T08:52:46.770Z,10.70
2019-05-05T08:55:14.544Z,10.70
2019-05-05T08:57:44.523Z,10.70
2019-05-05T09:00:13.898Z,10.80
2019-05-05T09:02:43.633Z,11.10
2019-05-05T09:05:11.677Z,11.30
2019-05-05T09:07:39.382Z,11.20
2019-05-05T09:10:07.110Z,11.00
2019-05-05T09:12:34.849Z,11.00
2019-05-05T09:15:04.419Z,11.00
2019-05-05T09:17:33.634Z,11.30
2019-05-05T09:20:01.491Z,11.40
2019-05-05T09:22:29.249Z,11.50
2019-05-05T09:25:25.133Z,11.40
2019-05-05T09:27:55.533Z,11.10
2019-05-05T09:30:37.566Z,10.90
2019-05-05T09:33:05.354Z,11.00
2019-05-05T09:35:34.242Z,11.30
2019-05-05T09:38:03.930Z,11.70
2019-05-05T09:40:38.908Z,11.70
2019-05-05T09:43:07.055Z,11.60
2019-05-05T09:45:34.904Z,11.20
2019-05-05T09:48:04.338Z,11.00
2019-05-05T09:50:34.062Z,10.90
2019-05-05T09:53:01.718Z,10.80
2019-05-05T09:55:29.415Z,11.10
2019-05-05T09:57:57.145Z,11.20
2019-05-05T10:00:25.072Z,11.30
2019-05-05T10:02:54.424Z,11.70
2019-05-05T10:05:23.645Z,11.90
2019-05-05T10:07:51.448Z,12.00
2019-05-05T10:10:20.868Z,11.80
2019-05-05T10:12:48.600Z,11.80
2019-05-05T10:15:16.511Z,11.70
2019-05-05T10:17:44.260Z,12.10
2019-05-05T10:20:11.974Z,12.10
2019-05-05T10:22:46.089Z,11.80
2019-05-05T10:25:35.508Z,11.40
2019-05-05T10:28:04.195Z,11.50
2019-05-05T10:30:32.160Z,11.90
2019-05-05T10:32:59.877Z,12.20
2019-05-05T10:35:27.617Z,11.90
2019-05-05T10:37:55.353Z,11.70
2019-05-05T10:40:26.848Z,11.60
2019-05-05T10:42:54.563Z,11.80
2019-05-05T10:45:24.228Z,12.20
2019-05-05T10:47:51.806Z,12.20
2019-05-05T10:50:19.535Z,11.90
2019-05-05T10:52:47.277Z,11.60
2019-05-05T10:55:15.125Z,11.40
2019-05-05T10:57:43.574Z,11.40
2019-05-05T11:00:13.217Z,11.60
2019-05-05T11:02:40.928Z,11.90
2019-05-05T11:05:08.749Z,11.70
2019-05-05T11:07:36.510Z,11.70
2019-05-05T11:10:04.295Z,11.50
2019-05-05T11:12:33.710Z,11.50
2019-05-05T11:15:03.926Z,11.70
2019-05-05T11:17:30.969Z,12.10
2019-05-05T11:19:58.703Z,12.30
2019-05-05T11:22:26.418Z,12.30
2019-05-05T11:25:00.581Z,12.00
2019-05-05T11:27:24.138Z,11.90
2019-05-05T11:30:14.450Z,12.20
2019-05-05T11:33:00.385Z,12.70
2019-05-05T11:35:45.465Z,13.00
2019-05-05T11:38:14.150Z,12.50
2019-05-05T11:40:43.808Z,12.00
2019-05-05T11:43:11.554Z,12.30
2019-05-05T11:45:39.279Z,12.50
2019-05-05T11:48:06.985Z,12.60
2019-05-05T11:50:34.702Z,12.70
2019-05-05T11:53:03.903Z,12.70
2019-05-05T11:55:33.503Z,12.90
2019-05-05T11:58:01.205Z,13.20
2019-05-05T12:00:28.945Z,13.10
2019-05-05T12:02:56.693Z,13.20
2019-05-05T12:05:24.484Z,13.40
2019-05-05T12:07:54.021Z,13.40
2019-05-05T12:10:50.048Z,13.40
2019-05-05T12:13:17.770Z,13.60
2019-05-05T12:15:47.714Z,13.80
2019-05-05T12:18:15.445Z,13.80
2019-05-05T12:20:44.107Z,13.80
2019-05-05T12:23:11.897Z,13.80
2019-05-05T12:26:04.994Z,13.40
2019-05-05T12:28:40.346Z,13.20
2019-05-05T12:31:14.161Z,13.30
2019-05-05T12:33:44.052Z,13.40
2019-05-05T12:36:11.457Z,13.30
2019-05-05T12:38:39.197Z,13.20
2019-05-05T12:41:06.913Z,13.00
2019-05-05T12:43:34.620Z,13.00
2019-05-05T12:46:09.986Z,13.10
2019-05-05T12:48:38.265Z,13.10
2019-05-05T12:51:05.993Z,13.70
2019-05-05T12:53:33.826Z,13.90
2019-05-05T12:56:01.554Z,13.80
2019-05-05T12:58:29.310Z,13.70
2019-05-05T13:01:07.240Z,13.40
2019-05-05T13:03:34.992Z,13.40
2019-05-05T13:06:04.118Z,13.70
2019-05-05T13:08:33.906Z,13.90
2019-05-05T13:11:01.473Z,14.10
2019-05-05T13:13:29.201Z,14.10
2019-05-05T13:15:56.940Z,13.80
2019-05-05T13:18:24.989Z,13.70
2019-05-05T13:21:12.125Z,14.00
2019-05-05T13:24:08.541Z,14.00
2019-05-05T13:26:42.262Z,13.90
2019-05-05T13:29:10.009Z,13.90
2019-05-05T13:31:37.771Z,13.60
2019-05-05T13:34:05.527Z,13.70
2019-05-05T13:36:33.507Z,13.60
2019-05-05T13:39:01.289Z,13.50
2019-05-05T13:41:29.038Z,13.30
2019-05-05T13:43:58.276Z,13.40
2019-05-05T13:46:28.013Z,13.80
2019-05-05T13:49:15.271Z,13.80
2019-05-05T13:51:44.770Z,13.80
2019-05-05T13:54:13.632Z,13.70
2019-05-05T13:56:41.357Z,13.60
2019-05-05T13:59:09.111Z,13.50
2019-05-05T14:01:36.814Z,13.80
2019-05-05T14:04:04.671Z,13.60
2019-05-05T14:06:33.489Z,13.90
2019-05-05T14:09:01.322Z,14.00
2019-05-05T14:11:29.026Z,14.20
2019-05-05T14:13:56.776Z,14.20
2019-05-05T14:16:24.481Z,14.20
2019-05-05T14:18:53.705Z,13.90
2019-05-05T14:21:21.529Z,13.90
2019-05-05T14:24:05.186Z,13.90
2019-05-05T14:26:35.173Z,13.90
2019-05-05T14:29:04.318Z,13.90
2019-05-05T14:31:35.473Z,14.00
2019-05-05T14:34:07.020Z,14.20
2019-05-05T14:36:46.025Z,14.10
2019-05-05T14:39:14.896Z,14.00
2019-05-05T14:41:44.478Z,14.00
2019-05-05T14:44:13.461Z,13.70
2019-05-05T14:46:41.273Z,13.60
2019-05-05T14:49:08.990Z,13.70
2019-05-05T14:51:36.729Z,14.00
2019-05-05T14:54:04.649Z,14.10
2019-05-05T14:56:36.386Z,13.80
2019-05-05T14:59:03.710Z,13.90
2019-05-05T15:01:31.597Z,13.80
2019-05-05T15:03:59.314Z,13.80
2019-05-05T15:06:40.989Z,13.80
2019-05-05T15:09:18.538Z,14.00
2019-05-05T15:12:03.642Z,14.30
2019-05-05T15:14:31.232Z,14.10
2019-05-05T15:16:58.986Z,14.20
2019-05-05T15:19:26.693Z,14.50
2019-05-05T15:21:54.495Z,14.40
2019-05-05T15:24:24.454Z,14.70
2019-05-05T15:26:54.734Z,14.70
2019-05-05T15:29:21.629Z,14.70
2019-05-05T15:31:49.473Z,14.20
2019-05-05T15:34:17.174Z,14.10
2019-05-05T15:36:44.939Z,14.10
2019-05-05T15:39:13.863Z,14.10
2019-05-05T15:41:41.884Z,14.00
2019-05-05T15:44:09.696Z,13.90
2019-05-05T15:46:37.477Z,14.00
2019-05-05T15:49:05.232Z,13.90
2019-05-05T15:51:34.363Z,13.80
2019-05-05T15:54:03.872Z,13.70
2019-05-05T15:56:31.649Z,13.90
2019-05-05T15:58:59.401Z,13.80
2019-05-05T16:01:27.113Z,13.90
2019-05-05T16:03:54.853Z,14.00
2019-05-05T16:06:23.755Z,14.30
2019-05-05T16:08:54.381Z,14.40
2019-05-05T16:11:21.061Z,14.30
2019-05-05T16:13:48.789Z,14.10
2019-05-05T16:16:41.925Z,14.10
2019-05-05T16:19:31.704Z,14.00
2019-05-05T16:22:03.942Z,14.00
2019-05-05T16:24:36.579Z,13.90
2019-05-05T16:27:08.193Z,13.80
2019-05-05T16:29:33.671Z,13.70
2019-05-05T16:32:01.548Z,13.50
2019-05-05T16:34:30.728Z,13.50
2019-05-05T16:36:58.457Z,13.40
2019-05-05T16:39:26.170Z,13.40
2019-05-05T16:41:53.904Z,13.50
2019-05-05T16:44:23.342Z,13.60
2019-05-05T16:46:51.169Z,13.70
2019-05-05T16:49:18.921Z,13.70
2019-05-05T16:52:11.982Z,13.60
2019-05-05T16:55:00.805Z,13.40
2019-05-05T16:57:33.940Z,13.10
2019-05-05T16:59:58.085Z,13.00
2019-05-05T17:02:25.824Z,13.20
2019-05-05T17:04:53.933Z,13.30
2019-05-05T17:07:23.649Z,13.40
2019-05-05T17:09:51.154Z,13.50
2019-05-05T17:12:18.861Z,13.30
2019-05-05T17:15:11.053Z,13.20
2019-05-05T17:18:04.692Z,13.10
2019-05-05T17:20:35.970Z,13.10
2019-05-05T17:23:08.406Z,13.00
2019-05-05T17:25:36.157Z,13.00
2019-05-05T17:28:04.540Z,12.90
2019-05-05T17:30:34.123Z,12.90
2019-05-05T17:33:03.665Z,12.90
2019-05-05T17:35:33.590Z,13.00
2019-05-05T17:38:08.724Z,13.00
2019-05-05T17:40:54.544Z,13.00
2019-05-05T17:43:34.072Z,13.00
2019-05-05T17:46:21.153Z,12.90
2019-05-05T17:49:14.163Z,12.80
2019-05-05T17:51:45.950Z,12.80
2019-05-05T17:54:34.560Z,12.80
2019-05-05T17:57:03.578Z,12.80
2019-05-05T17:59:33.549Z,12.70
2019-05-05T18:02:00.988Z,12.50
2019-05-05T18:04:28.735Z,12.40
2019-05-05T18:07:10.175Z,12.30
2019-05-05T18:10:15.569Z,12.30
2019-05-05T18:13:11.805Z,12.30
2019-05-05T18:16:00.825Z,12.30
2019-05-05T18:18:28.561Z,12.30
2019-05-05T18:20:56.295Z,12.30
2019-05-05T18:23:24.053Z,12.20
2019-05-05T18:25:51.770Z,12.10
2019-05-05T18:28:20.217Z,12.00
2019-05-05T18:30:48.101Z,11.90
2019-05-05T18:33:15.846Z,11.80
2019-05-05T18:35:44.425Z,11.60
2019-05-05T18:38:13.722Z,11.50
2019-05-05T18:40:43.409Z,11.50
2019-05-05T18:43:17.154Z,11.40
2019-05-05T18:45:44.870Z,11.30
2019-05-05T18:48:13.956Z,11.20
2019-05-05T18:50:41.752Z,11.10
2019-05-05T18:53:09.478Z,11.10
2019-05-05T18:55:37.221Z,11.10
2019-05-05T18:58:07.366Z,11.00
2019-05-05T19:01:06.781Z,10.90
2019-05-05T19:03:54.458Z,10.80
2019-05-05T19:06:40.545Z,10.70
2019-05-05T19:09:09.681Z,10.70
2019-05-05T19:11:37.396Z,10.60
2019-05-05T19:14:05.145Z,10.60
2019-05-05T19:16:34.602Z,10.50
2019-05-05T19:19:03.653Z,10.40
2019-05-05T19:21:35.962Z,10.40
2019-05-05T19:24:04.039Z,10.30
2019-05-05T19:26:33.644Z,10.30
2019-05-05T19:29:02.966Z,10.20
2019-05-05T19:31:32.104Z,10.20
2019-05-05T19:34:04.108Z,10.10
2019-05-05T19:36:34.145Z,10.10
2019-05-05T19:39:01.504Z,10.10
2019-05-05T19:41:29.253Z,10.00
2019-05-05T19:43:56.993Z,10.00
2019-05-05T19:46:34.688Z,9.90
2019-05-05T19:49:15.789Z,9.90
2019-05-05T19:51:44.625Z,9.80
2019-05-05T19:54:14.375Z,9.70
2019-05-05T19:56:41.997Z,9.70
2019-05-05T19:59:09.713Z,9.70
2019-05-05T20:01:37.912Z,9.60
2019-05-05T20:04:05.687Z,9.60
2019-05-05T20:06:33.439Z,9.60
2019-05-05T20:09:01.145Z,9.60
2019-05-05T20:11:29.067Z,9.60
2019-05-05T20:14:06.612Z,9.60
2019-05-05T20:16:54.830Z,9.50
2019-05-05T20:19:22.870Z,9.50
2019-05-05T20:21:50.605Z,9.50
2019-05-05T20:24:18.318Z,9.40
2019-05-05T20:26:46.054Z,9.40
2019-05-05T20:29:16.945Z,9.40
2019-05-05T20:31:43.421Z,9.30
2019-05-05T20:34:20.437Z,9.30
2019-05-05T20:37:19.307Z,9.30
2019-05-05T20:39:47.057Z,9.20
2019-05-05T20:42:15.027Z,9.20
2019-05-05T20:44:43.760Z,9.10
2019-05-05T20:47:11.681Z,9.10
2019-05-05T20:49:39.505Z,9.10
2019-05-05T20:52:07.213Z,9.10
2019-05-05T20:54:34.933Z,9.10
2019-05-05T20:57:04.354Z,9.00
2019-05-05T20:59:34.109Z,9.00
2019-05-05T21:02:01.682Z,9.00
2019-05-05T21:04:29.473Z,9.00
2019-05-05T21:06:57.220Z,9.00
2019-05-05T21:09:24.996Z,9.00
2019-05-05T21:11:54.575Z,8.90
2019-05-05T21:14:31.976Z,8.90
2019-05-05T21:16:51.928Z,8.90
2019-05-05T21:19:19.686Z,8.80
2019-05-05T21:21:50.821Z,8.80
2019-05-05T21:24:18.501Z,8.80
2019-05-05T21:26:52.985Z,8.70
2019-05-05T21:29:23.889Z,8.70
2019-05-05T21:31:55.498Z,8.70
2019-05-05T21:34:24.772Z,8.60
2019-05-05T21:36:54.020Z,8.60
2019-05-05T21:39:22.020Z,8.50
2019-05-05T21:41:49.741Z,8.50
2019-05-05T21:46:59.210Z,8.40
2019-05-05T21:49:26.442Z,8.40
2019-05-05T21:52:14.351Z,8.40
2019-05-05T21:54:49.117Z,8.30
2019-05-05T21:57:43.950Z,8.30
2019-05-05T22:00:30.831Z,8.30
2019-05-05T22:02:59.053Z,8.20
2019-05-05T22:05:26.805Z,8.20
2019-05-05T22:07:54.645Z,8.10
2019-05-05T22:10:24.376Z,8.10
2019-05-05T22:12:54.109Z,8.10
2019-05-05T22:15:21.414Z,8.00
2019-05-05T22:17:49.117Z,8.00
2019-05-05T22:20:23.230Z,8.00
2019-05-05T22:22:51.103Z,8.00
2019-05-05T22:25:18.883Z,8.00
2019-05-05T22:27:46.593Z,7.90
2019-05-05T22:30:14.433Z,7.90
2019-05-05T22:32:44.050Z,8.00
2019-05-05T22:35:11.761Z,8.00
2019-05-05T22:37:39.480Z,8.00
2019-05-05T22:40:07.215Z,7.90
2019-05-05T22:42:34.921Z,8.00
2019-05-05T22:45:04.464Z,7.90
2019-05-05T22:47:34.341Z,7.90
2019-05-05T22:50:01.737Z,7.90
2019-05-05T22:52:29.441Z,7.80
2019-05-05T22:54:57.165Z,7.80
2019-05-05T22:57:24.895Z,7.80
2019-05-05T22:59:54.136Z,7.80
2019-05-05T23:02:24.495Z,7.70
2019-05-05T23:05:00.487Z,7.70
2019-05-05T23:07:30.233Z,7.60
2019-05-05T23:09:57.959Z,7.50
2019-05-05T23:12:25.703Z,7.50
2019-05-05T23:14:54.486Z,7.50
2019-05-05T23:17:43.706Z,7.50
2019-05-05T23:20:27.414Z,7.50
2019-05-05T23:23:04.761Z,7.40
2019-05-05T23:25:37.380Z,7.30
2019-05-05T23:28:05.144Z,7.10
2019-05-05T23:30:41.150Z,7.00
2019-05-05T23:33:02.473Z,7.00
2019-05-05T23:35:30.208Z,6.90
2019-05-05T23:37:57.949Z,6.90
2019-05-05T23:40:25.696Z,6.90
2019-05-05T23:42:54.009Z,6.90
2019-05-05T23:45:21.989Z,6.80
2019-05-05T23:47:49.846Z,6.80
2019-05-05T23:50:17.564Z,6.90
2019-05-05T23:52:45.342Z,6.90
2019-05-05T23:55:14.313Z,6.80
2019-05-05T23:57:43.771Z,6.90
